sensor_id;sensor_type;location;lat;lon;timestamp;temperature;humidity
3380;DHT22;1703;51.964;7.642;2023-04-07T00:00:26;8.70;99.90
3380;DHT22;1703;51.964;7.642;2023-04-07T00:02:55;8.70;99.90
3380;DHT22;1703;51.964;7.642;2023-04-07T00:05:22;8.70;99.90
3380;DHT22;1703;51.964;7.642;2023-04-07T00:07:49;8.70;99.90
3380;DHT22;1703;51.964;7.642;2023-04-07T00:10:16;8.60;99.90
3380;DHT22;1703;51.964;7.642;2023-04-07T00:12:43;8.60;99.90
3380;DHT22;1703;51.964;7.642;2023-04-07T00:15:10;8.50;99.90
3380;DHT22;1703;51.964;7.642;2023-04-07T00:17:37;8.40;99.90
3380;DHT22;1703;51.964;7.642;2023-04-07T00:20:06;8.30;99.90
3380;DHT22;1703;51.964;7.642;2023-04-07T00:22:33;8.30;99.90
3380;DHT22;1703;51.964;7.642;2023-04-07T00:25:00;8.40;99.90
3380;DHT22;1703;51.964;7.642;2023-04-07T00:27:26;8.40;99.90
3380;DHT22;1703;51.964;7.642;2023-04-07T00:29:53;8.50;99.90
3380;DHT22;1703;51.964;7.642;2023-04-07T00:32:21;8.50;99.90
3380;DHT22;1703;51.964;7.642;2023-04-07T00:34:48;8.50;99.90
3380;DHT22;1703;51.964;7.642;2023-04-07T00:37:16;8.60;99.90
3380;DHT22;1703;51.964;7.642;2023-04-07T00:39:43;8.60;99.90
3380;DHT22;1703;51.964;7.642;2023-04-07T00:42:10;8.70;99.90
3380;DHT22;1703;51.964;7.642;2023-04-07T00:44:37;8.60;99.90
3380;DHT22;1703;51.964;7.642;2023-04-07T00:47:04;8.70;99.90
3380;DHT22;1703;51.964;7.642;2023-04-07T00:49:31;8.80;99.90
3380;DHT22;1703;51.964;7.642;2023-04-07T00:51:58;8.80;99.90
3380;DHT22;1703;51.964;7.642;2023-04-07T00:54:26;8.90;99.90
3380;DHT22;1703;51.964;7.642;2023-04-07T00:56:56;9.00;99.90
3380;DHT22;1703;51.964;7.642;2023-04-07T00:59:23;9.00;99.90
3380;DHT22;1703;51.964;7.642;2023-04-07T01:01:57;9.00;99.90
3380;DHT22;1703;51.964;7.642;2023-04-07T01:04:29;9.00;99.90
3380;DHT22;1703;51.964;7.642;2023-04-07T01:07:03;9.00;99.90
3380;DHT22;1703;51.964;7.642;2023-04-07T01:09:44;9.10;99.90
3380;DHT22;1703;51.964;7.642;2023-04-07T01:12:17;9.10;99.90
3380;DHT22;1703;51.964;7.642;2023-04-07T01:14:51;9.10;99.90
3380;DHT22;1703;51.964;7.642;2023-04-07T01:17:36;9.20;99.90
3380;DHT22;1703;51.964;7.642;2023-04-07T01:20:06;9.10;99.90
3380;DHT22;1703;51.964;7.642;2023-04-07T01:22:40;9.10;99.90
3380;DHT22;1703;51.964;7.642;2023-04-07T01:25:26;9.10;99.90
3380;DHT22;1703;51.964;7.642;2023-04-07T01:28:12;9.00;99.90
3380;DHT22;1703;51.964;7.642;2023-04-07T01:30:43;9.10;99.90
3380;DHT22;1703;51.964;7.642;2023-04-07T01:33:11;9.10;99.90
3380;DHT22;1703;51.964;7.642;2023-04-07T01:35:38;9.10;99.90
3380;DHT22;1703;51.964;7.642;2023-04-07T01:38:08;9.10;99.90
3380;DHT22;1703;51.964;7.642;2023-04-07T01:40:37;9.10;99.90
3380;DHT22;1703;51.964;7.642;2023-04-07T01:43:05;9.10;99.90
3380;DHT22;1703;51.964;7.642;2023-04-07T01:45:34;9.10;99.90
3380;DHT22;1703;51.964;7.642;2023-04-07T01:48:06;9.10;99.90
3380;DHT22;1703;51.964;7.642;2023-04-07T01:50:33;9.10;99.90
3380;DHT22;1703;51.964;7.642;2023-04-07T01:53:02;9.10;99.90
3380;DHT22;1703;51.964;7.642;2023-04-07T01:55:31;9.10;99.90
3380;DHT22;1703;51.964;7.642;2023-04-07T01:58:05;9.20;99.90
3380;DHT22;1703;51.964;7.642;2023-04-07T02:00:33;9.10;99.90
3380;DHT22;1703;51.964;7.642;2023-04-07T02:03:10;9.10;99.90
3380;DHT22;1703;51.964;7.642;2023-04-07T02:05:47;9.10;99.90
3380;DHT22;1703;51.964;7.642;2023-04-07T02:08:16;9.10;99.90
3380;DHT22;1703;51.964;7.642;2023-04-07T02:10:46;9.10;99.90
3380;DHT22;1703;51.964;7.642;2023-04-07T02:13:19;9.10;99.90
3380;DHT22;1703;51.964;7.642;2023-04-07T02:15:49;9.20;99.90
3380;DHT22;1703;51.964;7.642;2023-04-07T02:18:19;9.20;99.90
3380;DHT22;1703;51.964;7.642;2023-04-07T02:20:47;9.10;99.90
3380;DHT22;1703;51.964;7.642;2023-04-07T02:23:16;9.10;99.90
3380;DHT22;1703;51.964;7.642;2023-04-07T02:25:43;9.10;99.90
3380;DHT22;1703;51.964;7.642;2023-04-07T02:28:09;9.10;99.90
3380;DHT22;1703;51.964;7.642;2023-04-07T02:30:36;9.10;99.90
3380;DHT22;1703;51.964;7.642;2023-04-07T02:33:03;9.10;99.90
3380;DHT22;1703;51.964;7.642;2023-04-07T02:35:32;9.20;99.90
3380;DHT22;1703;51.964;7.642;2023-04-07T02:38:01;9.30;99.90
3380;DHT22;1703;51.964;7.642;2023-04-07T02:40:27;9.30;99.90
3380;DHT22;1703;51.964;7.642;2023-04-07T02:42:54;9.30;99.90
3380;DHT22;1703;51.964;7.642;2023-04-07T02:45:22;9.30;99.90
3380;DHT22;1703;51.964;7.642;2023-04-07T02:47:48;9.30;99.90
3380;DHT22;1703;51.964;7.642;2023-04-07T02:50:16;9.30;99.90
3380;DHT22;1703;51.964;7.642;2023-04-07T02:52:45;9.20;99.90
3380;DHT22;1703;51.964;7.642;2023-04-07T02:55:13;9.20;99.90
3380;DHT22;1703;51.964;7.642;2023-04-07T02:57:40;9.20;99.90
3380;DHT22;1703;51.964;7.642;2023-04-07T03:00:15;9.30;99.90
3380;DHT22;1703;51.964;7.642;2023-04-07T03:02:56;9.30;99.90
3380;DHT22;1703;51.964;7.642;2023-04-07T03:05:24;9.30;99.90
3380;DHT22;1703;51.964;7.642;2023-04-07T03:07:52;9.30;99.90
3380;DHT22;1703;51.964;7.642;2023-04-07T03:10:19;9.30;99.90
3380;DHT22;1703;51.964;7.642;2023-04-07T03:12:46;9.30;99.90
3380;DHT22;1703;51.964;7.642;2023-04-07T03:15:13;9.30;99.90
3380;DHT22;1703;51.964;7.642;2023-04-07T03:17:44;9.30;99.90
3380;DHT22;1703;51.964;7.642;2023-04-07T03:20:11;9.30;99.90
3380;DHT22;1703;51.964;7.642;2023-04-07T03:22:38;9.30;99.90
3380;DHT22;1703;51.964;7.642;2023-04-07T03:25:13;9.30;99.90
3380;DHT22;1703;51.964;7.642;2023-04-07T03:27:40;9.30;99.90
3380;DHT22;1703;51.964;7.642;2023-04-07T03:30:10;9.40;99.90
3380;DHT22;1703;51.964;7.642;2023-04-07T03:32:37;9.30;99.90
3380;DHT22;1703;51.964;7.642;2023-04-07T03:35:05;9.30;99.90
3380;DHT22;1703;51.964;7.642;2023-04-07T03:37:32;9.30;99.90
3380;DHT22;1703;51.964;7.642;2023-04-07T03:39:58;9.20;99.90
3380;DHT22;1703;51.964;7.642;2023-04-07T03:42:31;9.10;99.90
3380;DHT22;1703;51.964;7.642;2023-04-07T03:45:02;9.20;99.90
3380;DHT22;1703;51.964;7.642;2023-04-07T03:47:32;9.20;99.90
3380;DHT22;1703;51.964;7.642;2023-04-07T03:50:01;9.20;99.90
3380;DHT22;1703;51.964;7.642;2023-04-07T03:52:32;9.30;99.90
3380;DHT22;1703;51.964;7.642;2023-04-07T03:55:08;9.30;99.90
3380;DHT22;1703;51.964;7.642;2023-04-07T03:57:37;9.30;99.90
3380;DHT22;1703;51.964;7.642;2023-04-07T04:00:05;9.30;99.90
3380;DHT22;1703;51.964;7.642;2023-04-07T04:02:41;9.20;99.90
3380;DHT22;1703;51.964;7.642;2023-04-07T04:05:11;9.20;99.90
3380;DHT22;1703;51.964;7.642;2023-04-07T04:07:38;9.20;99.90
3380;DHT22;1703;51.964;7.642;2023-04-07T04:10:07;9.30;99.90
3380;DHT22;1703;51.964;7.642;2023-04-07T04:12:41;9.30;99.90
3380;DHT22;1703;51.964;7.642;2023-04-07T04:15:10;9.30;99.90
3380;DHT22;1703;51.964;7.642;2023-04-07T04:17:38;9.30;99.90
3380;DHT22;1703;51.964;7.642;2023-04-07T04:20:07;9.30;99.90
3380;DHT22;1703;51.964;7.642;2023-04-07T04:22:40;9.30;99.90
3380;DHT22;1703;51.964;7.642;2023-04-07T04:25:08;9.20;99.90
3380;DHT22;1703;51.964;7.642;2023-04-07T04:27:36;9.20;99.90
3380;DHT22;1703;51.964;7.642;2023-04-07T04:30:11;9.20;99.90
3380;DHT22;1703;51.964;7.642;2023-04-07T04:32:45;9.20;99.90
3380;DHT22;1703;51.964;7.642;2023-04-07T04:35:14;9.20;99.90
3380;DHT22;1703;51.964;7.642;2023-04-07T04:37:51;9.20;99.90
3380;DHT22;1703;51.964;7.642;2023-04-07T04:40:18;9.30;99.90
3380;DHT22;1703;51.964;7.642;2023-04-07T04:42:47;9.30;99.90
3380;DHT22;1703;51.964;7.642;2023-04-07T04:45:16;9.20;99.90
3380;DHT22;1703;51.964;7.642;2023-04-07T04:47:46;9.10;99.90
3380;DHT22;1703;51.964;7.642;2023-04-07T04:50:13;9.10;99.90
3380;DHT22;1703;51.964;7.642;2023-04-07T04:52:41;9.20;99.90
3380;DHT22;1703;51.964;7.642;2023-04-07T04:55:15;9.20;99.90
3380;DHT22;1703;51.964;7.642;2023-04-07T04:57:43;9.10;99.90
3380;DHT22;1703;51.964;7.642;2023-04-07T05:00:22;9.10;99.90
3380;DHT22;1703;51.964;7.642;2023-04-07T05:02:58;9.20;99.90
3380;DHT22;1703;51.964;7.642;2023-04-07T05:05:25;9.10;99.90
3380;DHT22;1703;51.964;7.642;2023-04-07T05:07:54;9.00;99.90
3380;DHT22;1703;51.964;7.642;2023-04-07T05:10:22;9.10;99.90
3380;DHT22;1703;51.964;7.642;2023-04-07T05:12:50;9.10;99.90
3380;DHT22;1703;51.964;7.642;2023-04-07T05:15:17;9.00;99.90
3380;DHT22;1703;51.964;7.642;2023-04-07T05:17:48;9.10;99.90
3380;DHT22;1703;51.964;7.642;2023-04-07T05:20:20;9.10;99.90
3380;DHT22;1703;51.964;7.642;2023-04-07T05:22:47;9.20;99.90
3380;DHT22;1703;51.964;7.642;2023-04-07T05:25:16;9.20;99.90
3380;DHT22;1703;51.964;7.642;2023-04-07T05:27:45;9.20;99.90
3380;DHT22;1703;51.964;7.642;2023-04-07T05:30:14;9.30;99.90
3380;DHT22;1703;51.964;7.642;2023-04-07T05:32:41;9.20;99.90
3380;DHT22;1703;51.964;7.642;2023-04-07T05:35:19;9.20;99.90
3380;DHT22;1703;51.964;7.642;2023-04-07T05:37:51;9.20;99.90
3380;DHT22;1703;51.964;7.642;2023-04-07T05:40:18;9.10;99.90
3380;DHT22;1703;51.964;7.642;2023-04-07T05:42:45;9.20;99.90
3380;DHT22;1703;51.964;7.642;2023-04-07T05:45:13;9.20;99.90
3380;DHT22;1703;51.964;7.642;2023-04-07T05:47:44;9.20;99.90
3380;DHT22;1703;51.964;7.642;2023-04-07T05:50:12;9.30;99.90
3380;DHT22;1703;51.964;7.642;2023-04-07T05:52:42;9.30;99.90
3380;DHT22;1703;51.964;7.642;2023-04-07T05:55:19;9.20;99.90
3380;DHT22;1703;51.964;7.642;2023-04-07T05:57:47;9.30;99.90
3380;DHT22;1703;51.964;7.642;2023-04-07T06:00:16;9.30;99.90
3380;DHT22;1703;51.964;7.642;2023-04-07T06:02:49;9.30;99.90
3380;DHT22;1703;51.964;7.642;2023-04-07T06:05:19;9.20;99.90
3380;DHT22;1703;51.964;7.642;2023-04-07T06:07:51;9.20;99.90
3380;DHT22;1703;51.964;7.642;2023-04-07T06:10:19;9.20;99.90
3380;DHT22;1703;51.964;7.642;2023-04-07T06:12:49;9.20;99.90
3380;DHT22;1703;51.964;7.642;2023-04-07T06:15:51;9.30;99.90
3380;DHT22;1703;51.964;7.642;2023-04-07T06:18:26;9.30;99.90
3380;DHT22;1703;51.964;7.642;2023-04-07T06:21:01;9.30;99.90
3380;DHT22;1703;51.964;7.642;2023-04-07T06:23:32;9.30;99.90
3380;DHT22;1703;51.964;7.642;2023-04-07T06:25:59;9.30;99.90
3380;DHT22;1703;51.964;7.642;2023-04-07T06:28:28;9.30;99.90
3380;DHT22;1703;51.964;7.642;2023-04-07T06:30:59;9.30;99.90
3380;DHT22;1703;51.964;7.642;2023-04-07T06:33:28;9.30;99.90
3380;DHT22;1703;51.964;7.642;2023-04-07T06:35:59;9.40;99.90
3380;DHT22;1703;51.964;7.642;2023-04-07T06:38:33;9.40;99.90
3380;DHT22;1703;51.964;7.642;2023-04-07T06:41:02;9.50;99.90
3380;DHT22;1703;51.964;7.642;2023-04-07T06:43:29;9.60;99.90
3380;DHT22;1703;51.964;7.642;2023-04-07T06:46:00;9.60;99.90
3380;DHT22;1703;51.964;7.642;2023-04-07T06:48:27;9.60;99.90
3380;DHT22;1703;51.964;7.642;2023-04-07T06:50:54;9.60;99.90
3380;DHT22;1703;51.964;7.642;2023-04-07T06:53:21;9.50;99.90
3380;DHT22;1703;51.964;7.642;2023-04-07T06:55:49;9.60;99.90
3380;DHT22;1703;51.964;7.642;2023-04-07T06:58:15;9.60;99.90
3380;DHT22;1703;51.964;7.642;2023-04-07T07:00:42;9.50;99.90
3380;DHT22;1703;51.964;7.642;2023-04-07T07:03:09;9.50;99.90
3380;DHT22;1703;51.964;7.642;2023-04-07T07:05:36;9.50;99.90
3380;DHT22;1703;51.964;7.642;2023-04-07T07:08:03;9.50;99.90
3380;DHT22;1703;51.964;7.642;2023-04-07T07:10:29;9.60;99.90
3380;DHT22;1703;51.964;7.642;2023-04-07T07:12:58;9.70;99.90
3380;DHT22;1703;51.964;7.642;2023-04-07T07:15:24;9.70;99.90
3380;DHT22;1703;51.964;7.642;2023-04-07T07:17:51;9.70;99.90
3380;DHT22;1703;51.964;7.642;2023-04-07T07:20:18;9.60;99.90
3380;DHT22;1703;51.964;7.642;2023-04-07T07:22:47;9.70;99.90
3380;DHT22;1703;51.964;7.642;2023-04-07T07:25:15;9.70;99.90
3380;DHT22;1703;51.964;7.642;2023-04-07T07:27:42;9.70;99.90
3380;DHT22;1703;51.964;7.642;2023-04-07T07:30:10;9.70;99.90
3380;DHT22;1703;51.964;7.642;2023-04-07T07:32:37;9.80;99.90
3380;DHT22;1703;51.964;7.642;2023-04-07T07:35:05;9.80;99.90
3380;DHT22;1703;51.964;7.642;2023-04-07T07:37:31;9.80;99.90
3380;DHT22;1703;51.964;7.642;2023-04-07T07:39:58;9.90;99.90
3380;DHT22;1703;51.964;7.642;2023-04-07T07:42:26;9.90;99.90
3380;DHT22;1703;51.964;7.642;2023-04-07T07:44:52;10.00;99.90
3380;DHT22;1703;51.964;7.642;2023-04-07T07:47:21;10.10;99.90
3380;DHT22;1703;51.964;7.642;2023-04-07T07:49:48;10.10;99.90
3380;DHT22;1703;51.964;7.642;2023-04-07T07:52:15;10.10;99.90
3380;DHT22;1703;51.964;7.642;2023-04-07T07:54:42;10.20;99.90
3380;DHT22;1703;51.964;7.642;2023-04-07T07:57:09;10.10;99.90
3380;DHT22;1703;51.964;7.642;2023-04-07T07:59:36;10.10;99.90
3380;DHT22;1703;51.964;7.642;2023-04-07T08:02:03;10.00;99.90
3380;DHT22;1703;51.964;7.642;2023-04-07T08:04:31;10.20;99.90
3380;DHT22;1703;51.964;7.642;2023-04-07T08:06:58;10.20;99.90
3380;DHT22;1703;51.964;7.642;2023-04-07T08:09:25;10.20;99.90
3380;DHT22;1703;51.964;7.642;2023-04-07T08:11:51;10.10;99.90
3380;DHT22;1703;51.964;7.642;2023-04-07T08:14:18;10.10;99.90
3380;DHT22;1703;51.964;7.642;2023-04-07T08:16:46;10.00;99.90
3380;DHT22;1703;51.964;7.642;2023-04-07T08:19:13;10.00;99.90
3380;DHT22;1703;51.964;7.642;2023-04-07T08:21:41;10.00;99.90
3380;DHT22;1703;51.964;7.642;2023-04-07T08:24:08;10.00;99.90
3380;DHT22;1703;51.964;7.642;2023-04-07T08:26:50;10.10;99.90
3380;DHT22;1703;51.964;7.642;2023-04-07T08:29:24;9.90;99.90
3380;DHT22;1703;51.964;7.642;2023-04-07T08:31:51;10.00;99.90
3380;DHT22;1703;51.964;7.642;2023-04-07T08:34:17;10.00;99.90
3380;DHT22;1703;51.964;7.642;2023-04-07T08:36:47;10.10;99.90
3380;DHT22;1703;51.964;7.642;2023-04-07T08:39:13;10.20;99.90
3380;DHT22;1703;51.964;7.642;2023-04-07T08:41:41;10.20;99.90
3380;DHT22;1703;51.964;7.642;2023-04-07T08:44:09;10.20;99.90
3380;DHT22;1703;51.964;7.642;2023-04-07T08:46:37;10.20;99.90
3380;DHT22;1703;51.964;7.642;2023-04-07T08:49:07;10.20;99.90
3380;DHT22;1703;51.964;7.642;2023-04-07T08:51:37;10.30;99.90
3380;DHT22;1703;51.964;7.642;2023-04-07T08:56:40;10.40;99.90
3380;DHT22;1703;51.964;7.642;2023-04-07T08:59:09;10.30;99.90
3380;DHT22;1703;51.964;7.642;2023-04-07T09:01:36;10.40;99.90
3380;DHT22;1703;51.964;7.642;2023-04-07T09:04:04;10.50;99.90
3380;DHT22;1703;51.964;7.642;2023-04-07T09:06:32;10.50;99.90
3380;DHT22;1703;51.964;7.642;2023-04-07T09:09:02;10.50;99.90
3380;DHT22;1703;51.964;7.642;2023-04-07T09:11:34;10.60;99.90
3380;DHT22;1703;51.964;7.642;2023-04-07T09:14:03;10.50;99.90
3380;DHT22;1703;51.964;7.642;2023-04-07T09:16:30;10.50;99.90
3380;DHT22;1703;51.964;7.642;2023-04-07T09:18:57;10.60;99.90
3380;DHT22;1703;51.964;7.642;2023-04-07T09:21:24;10.60;99.90
3380;DHT22;1703;51.964;7.642;2023-04-07T09:23:52;10.70;99.90
3380;DHT22;1703;51.964;7.642;2023-04-07T09:26:21;10.70;99.90
3380;DHT22;1703;51.964;7.642;2023-04-07T09:28:53;10.70;99.90
3380;DHT22;1703;51.964;7.642;2023-04-07T09:31:22;10.60;99.90
3380;DHT22;1703;51.964;7.642;2023-04-07T09:33:50;10.70;99.90
3380;DHT22;1703;51.964;7.642;2023-04-07T09:36:18;10.60;99.90
3380;DHT22;1703;51.964;7.642;2023-04-07T09:38:45;10.50;99.90
3380;DHT22;1703;51.964;7.642;2023-04-07T09:41:13;10.50;99.90
3380;DHT22;1703;51.964;7.642;2023-04-07T09:43:42;10.40;99.90
3380;DHT22;1703;51.964;7.642;2023-04-07T09:46:11;10.40;99.90
3380;DHT22;1703;51.964;7.642;2023-04-07T09:48:40;10.40;99.90
3380;DHT22;1703;51.964;7.642;2023-04-07T09:51:11;10.40;99.90
3380;DHT22;1703;51.964;7.642;2023-04-07T09:53:43;10.50;99.90
3380;DHT22;1703;51.964;7.642;2023-04-07T09:56:11;10.50;99.90
3380;DHT22;1703;51.964;7.642;2023-04-07T09:58:39;10.50;99.90
3380;DHT22;1703;51.964;7.642;2023-04-07T10:01:07;10.50;99.90
3380;DHT22;1703;51.964;7.642;2023-04-07T10:03:34;10.60;99.90
3380;DHT22;1703;51.964;7.642;2023-04-07T10:06:03;10.60;99.90
3380;DHT22;1703;51.964;7.642;2023-04-07T10:08:31;10.70;99.90
3380;DHT22;1703;51.964;7.642;2023-04-07T10:11:00;10.70;99.90
3380;DHT22;1703;51.964;7.642;2023-04-07T10:13:28;10.70;99.90
3380;DHT22;1703;51.964;7.642;2023-04-07T10:15:55;10.80;99.90
3380;DHT22;1703;51.964;7.642;2023-04-07T10:18:22;10.90;99.90
3380;DHT22;1703;51.964;7.642;2023-04-07T10:20:51;10.90;99.90
3380;DHT22;1703;51.964;7.642;2023-04-07T10:23:24;10.80;99.90
3380;DHT22;1703;51.964;7.642;2023-04-07T10:25:53;10.90;99.90
3380;DHT22;1703;51.964;7.642;2023-04-07T10:28:24;10.70;99.90
3380;DHT22;1703;51.964;7.642;2023-04-07T10:30:52;10.80;99.90
3380;DHT22;1703;51.964;7.642;2023-04-07T10:33:43;10.90;99.90
3380;DHT22;1703;51.964;7.642;2023-04-07T10:36:10;10.80;99.90
3380;DHT22;1703;51.964;7.642;2023-04-07T10:38:39;10.90;99.90
3380;DHT22;1703;51.964;7.642;2023-04-07T10:41:33;10.90;99.90
3380;DHT22;1703;51.964;7.642;2023-04-07T10:44:01;10.90;99.90
3380;DHT22;1703;51.964;7.642;2023-04-07T10:49:38;10.90;99.90
3380;DHT22;1703;51.964;7.642;2023-04-07T10:52:22;10.90;99.90
3380;DHT22;1703;51.964;7.642;2023-04-07T10:58:19;10.90;99.90
3380;DHT22;1703;51.964;7.642;2023-04-07T11:01:18;10.80;99.90
3380;DHT22;1703;51.964;7.642;2023-04-07T11:04:02;10.80;99.90
3380;DHT22;1703;51.964;7.642;2023-04-07T11:06:33;10.80;99.90
3380;DHT22;1703;51.964;7.642;2023-04-07T11:09:02;10.80;99.90
3380;DHT22;1703;51.964;7.642;2023-04-07T11:11:41;11.00;99.90
3380;DHT22;1703;51.964;7.642;2023-04-07T11:14:41;11.00;99.90
3380;DHT22;1703;51.964;7.642;2023-04-07T11:17:21;11.10;99.90
3380;DHT22;1703;51.964;7.642;2023-04-07T11:23:44;11.10;99.90
3380;DHT22;1703;51.964;7.642;2023-04-07T11:26:14;11.00;99.90
3380;DHT22;1703;51.964;7.642;2023-04-07T11:28:45;11.00;99.90
3380;DHT22;1703;51.964;7.642;2023-04-07T11:31:21;11.10;99.90
3380;DHT22;1703;51.964;7.642;2023-04-07T11:34:00;11.20;99.90
3380;DHT22;1703;51.964;7.642;2023-04-07T11:36:28;11.30;99.90
3380;DHT22;1703;51.964;7.642;2023-04-07T11:38:59;11.30;99.90
3380;DHT22;1703;51.964;7.642;2023-04-07T11:41:32;11.20;99.90
3380;DHT22;1703;51.964;7.642;2023-04-07T11:44:03;11.20;99.90
3380;DHT22;1703;51.964;7.642;2023-04-07T11:46:33;11.30;99.90
3380;DHT22;1703;51.964;7.642;2023-04-07T11:49:11;11.40;99.90
3380;DHT22;1703;51.964;7.642;2023-04-07T11:51:39;11.50;99.90
3380;DHT22;1703;51.964;7.642;2023-04-07T11:54:06;11.40;99.90
3380;DHT22;1703;51.964;7.642;2023-04-07T11:56:42;11.30;99.90
3380;DHT22;1703;51.964;7.642;2023-04-07T11:59:19;11.20;99.90
3380;DHT22;1703;51.964;7.642;2023-04-07T12:01:49;11.20;99.90
3380;DHT22;1703;51.964;7.642;2023-04-07T12:04:17;11.30;99.90
3380;DHT22;1703;51.964;7.642;2023-04-07T12:06:46;11.30;99.90
3380;DHT22;1703;51.964;7.642;2023-04-07T12:09:28;11.40;99.90
3380;DHT22;1703;51.964;7.642;2023-04-07T12:11:55;11.50;99.90
3380;DHT22;1703;51.964;7.642;2023-04-07T12:14:23;11.60;99.90
3380;DHT22;1703;51.964;7.642;2023-04-07T12:16:52;11.50;99.90
3380;DHT22;1703;51.964;7.642;2023-04-07T12:19:21;11.60;99.90
3380;DHT22;1703;51.964;7.642;2023-04-07T12:21:48;11.60;99.90
3380;DHT22;1703;51.964;7.642;2023-04-07T12:24:15;11.50;99.90
3380;DHT22;1703;51.964;7.642;2023-04-07T12:26:43;11.50;99.90
3380;DHT22;1703;51.964;7.642;2023-04-07T12:29:10;11.50;99.90
3380;DHT22;1703;51.964;7.642;2023-04-07T12:31:37;11.50;99.90
3380;DHT22;1703;51.964;7.642;2023-04-07T12:34:07;11.50;99.90
3380;DHT22;1703;51.964;7.642;2023-04-07T12:36:37;11.50;99.90
3380;DHT22;1703;51.964;7.642;2023-04-07T12:39:05;11.50;99.90
3380;DHT22;1703;51.964;7.642;2023-04-07T12:41:46;11.50;99.90
3380;DHT22;1703;51.964;7.642;2023-04-07T12:44:17;11.50;99.90
3380;DHT22;1703;51.964;7.642;2023-04-07T12:46:49;11.60;99.90
3380;DHT22;1703;51.964;7.642;2023-04-07T12:49:18;11.50;99.90
3380;DHT22;1703;51.964;7.642;2023-04-07T12:51:44;11.60;99.90
3380;DHT22;1703;51.964;7.642;2023-04-07T12:54:11;11.50;99.90
3380;DHT22;1703;51.964;7.642;2023-04-07T12:56:39;11.60;99.90
3380;DHT22;1703;51.964;7.642;2023-04-07T12:59:06;11.70;99.90
3380;DHT22;1703;51.964;7.642;2023-04-07T13:01:34;11.60;99.90
3380;DHT22;1703;51.964;7.642;2023-04-07T13:04:01;11.60;99.90
3380;DHT22;1703;51.964;7.642;2023-04-07T13:06:29;11.70;99.90
3380;DHT22;1703;51.964;7.642;2023-04-07T13:08:56;11.80;99.90
3380;DHT22;1703;51.964;7.642;2023-04-07T13:11:23;11.90;99.90
3380;DHT22;1703;51.964;7.642;2023-04-07T13:13:51;11.90;99.90
3380;DHT22;1703;51.964;7.642;2023-04-07T13:16:17;11.90;99.90
3380;DHT22;1703;51.964;7.642;2023-04-07T13:18:45;11.90;99.90
3380;DHT22;1703;51.964;7.642;2023-04-07T13:21:12;12.00;99.90
3380;DHT22;1703;51.964;7.642;2023-04-07T13:23:40;12.00;99.90
3380;DHT22;1703;51.964;7.642;2023-04-07T13:26:07;12.10;99.90
3380;DHT22;1703;51.964;7.642;2023-04-07T13:28:34;12.10;99.90
3380;DHT22;1703;51.964;7.642;2023-04-07T13:31:01;12.20;99.90
3380;DHT22;1703;51.964;7.642;2023-04-07T13:33:27;12.30;99.90
3380;DHT22;1703;51.964;7.642;2023-04-07T13:35:54;12.40;99.90
3380;DHT22;1703;51.964;7.642;2023-04-07T13:38:21;12.50;99.90
3380;DHT22;1703;51.964;7.642;2023-04-07T13:40:49;12.50;99.90
3380;DHT22;1703;51.964;7.642;2023-04-07T13:43:16;12.60;99.90
3380;DHT22;1703;51.964;7.642;2023-04-07T13:45:43;12.70;99.90
3380;DHT22;1703;51.964;7.642;2023-04-07T13:48:11;12.70;99.90
3380;DHT22;1703;51.964;7.642;2023-04-07T13:50:38;12.90;99.90
3380;DHT22;1703;51.964;7.642;2023-04-07T13:53:05;12.90;99.90
3380;DHT22;1703;51.964;7.642;2023-04-07T13:55:32;12.90;99.90
3380;DHT22;1703;51.964;7.642;2023-04-07T13:58:00;12.80;99.90
3380;DHT22;1703;51.964;7.642;2023-04-07T14:00:27;12.90;99.90
3380;DHT22;1703;51.964;7.642;2023-04-07T14:02:54;13.00;99.90
3380;DHT22;1703;51.964;7.642;2023-04-07T14:05:22;13.00;99.90
3380;DHT22;1703;51.964;7.642;2023-04-07T14:07:48;13.10;99.90
3380;DHT22;1703;51.964;7.642;2023-04-07T14:10:16;13.10;99.90
3380;DHT22;1703;51.964;7.642;2023-04-07T14:12:43;13.00;99.90
3380;DHT22;1703;51.964;7.642;2023-04-07T14:15:11;12.90;99.90
3380;DHT22;1703;51.964;7.642;2023-04-07T14:17:38;13.00;99.90
3380;DHT22;1703;51.964;7.642;2023-04-07T14:20:06;13.10;99.90
3380;DHT22;1703;51.964;7.642;2023-04-07T14:22:33;13.10;99.90
3380;DHT22;1703;51.964;7.642;2023-04-07T14:25:00;13.10;99.90
3380;DHT22;1703;51.964;7.642;2023-04-07T14:27:26;13.00;99.90
3380;DHT22;1703;51.964;7.642;2023-04-07T14:29:55;13.10;99.90
3380;DHT22;1703;51.964;7.642;2023-04-07T14:32:23;13.10;99.90
3380;DHT22;1703;51.964;7.642;2023-04-07T14:34:53;13.00;99.90
3380;DHT22;1703;51.964;7.642;2023-04-07T14:37:21;13.00;99.90
3380;DHT22;1703;51.964;7.642;2023-04-07T14:39:50;13.00;99.90
3380;DHT22;1703;51.964;7.642;2023-04-07T14:42:17;13.00;99.90
3380;DHT22;1703;51.964;7.642;2023-04-07T14:44:44;13.00;99.90
3380;DHT22;1703;51.964;7.642;2023-04-07T14:47:11;13.00;99.90
3380;DHT22;1703;51.964;7.642;2023-04-07T14:49:39;13.10;99.90
3380;DHT22;1703;51.964;7.642;2023-04-07T14:52:06;13.00;99.90
3380;DHT22;1703;51.964;7.642;2023-04-07T14:54:33;13.00;99.90
3380;DHT22;1703;51.964;7.642;2023-04-07T14:57:00;13.00;99.90
3380;DHT22;1703;51.964;7.642;2023-04-07T14:59:33;13.00;99.90
3380;DHT22;1703;51.964;7.642;2023-04-07T15:01:59;12.90;99.90
3380;DHT22;1703;51.964;7.642;2023-04-07T15:04:26;12.90;99.90
3380;DHT22;1703;51.964;7.642;2023-04-07T15:06:54;12.80;99.90
3380;DHT22;1703;51.964;7.642;2023-04-07T15:09:21;12.70;99.90
3380;DHT22;1703;51.964;7.642;2023-04-07T15:11:48;12.60;99.90
3380;DHT22;1703;51.964;7.642;2023-04-07T15:14:15;12.50;99.90
3380;DHT22;1703;51.964;7.642;2023-04-07T15:16:41;12.50;99.90
3380;DHT22;1703;51.964;7.642;2023-04-07T15:19:08;12.40;99.90
3380;DHT22;1703;51.964;7.642;2023-04-07T15:21:35;12.60;99.90
3380;DHT22;1703;51.964;7.642;2023-04-07T15:24:03;12.60;99.90
3380;DHT22;1703;51.964;7.642;2023-04-07T15:26:30;12.70;99.90
3380;DHT22;1703;51.964;7.642;2023-04-07T15:28:57;12.60;99.90
3380;DHT22;1703;51.964;7.642;2023-04-07T15:31:24;12.50;99.90
3380;DHT22;1703;51.964;7.642;2023-04-07T15:33:52;12.40;99.90
3380;DHT22;1703;51.964;7.642;2023-04-07T15:36:19;12.50;99.90
3380;DHT22;1703;51.964;7.642;2023-04-07T15:38:47;12.50;99.90
3380;DHT22;1703;51.964;7.642;2023-04-07T15:41:15;12.60;99.90
3380;DHT22;1703;51.964;7.642;2023-04-07T15:43:42;12.70;99.90
3380;DHT22;1703;51.964;7.642;2023-04-07T15:46:09;12.70;99.90
3380;DHT22;1703;51.964;7.642;2023-04-07T15:48:35;12.70;99.90
3380;DHT22;1703;51.964;7.642;2023-04-07T15:51:02;12.80;99.90
3380;DHT22;1703;51.964;7.642;2023-04-07T15:53:29;12.90;99.90
3380;DHT22;1703;51.964;7.642;2023-04-07T15:55:56;12.80;99.90
3380;DHT22;1703;51.964;7.642;2023-04-07T15:58:24;12.80;99.90
3380;DHT22;1703;51.964;7.642;2023-04-07T16:00:51;12.80;99.90
3380;DHT22;1703;51.964;7.642;2023-04-07T16:03:18;12.70;99.90
3380;DHT22;1703;51.964;7.642;2023-04-07T16:05:45;12.80;99.90
3380;DHT22;1703;51.964;7.642;2023-04-07T16:08:11;12.80;99.90
3380;DHT22;1703;51.964;7.642;2023-04-07T16:10:38;12.80;99.90
3380;DHT22;1703;51.964;7.642;2023-04-07T16:13:05;12.90;99.90
3380;DHT22;1703;51.964;7.642;2023-04-07T16:15:33;13.00;99.90
3380;DHT22;1703;51.964;7.642;2023-04-07T16:18:03;12.90;99.90
3380;DHT22;1703;51.964;7.642;2023-04-07T16:20:30;12.90;99.90
3380;DHT22;1703;51.964;7.642;2023-04-07T16:22:57;12.90;99.90
3380;DHT22;1703;51.964;7.642;2023-04-07T16:25:24;12.90;99.90
3380;DHT22;1703;51.964;7.642;2023-04-07T16:27:51;13.00;99.90
3380;DHT22;1703;51.964;7.642;2023-04-07T16:30:19;12.90;99.90
3380;DHT22;1703;51.964;7.642;2023-04-07T16:32:47;12.80;99.90
3380;DHT22;1703;51.964;7.642;2023-04-07T16:35:14;12.80;99.90